createdAt,value
2023-06-22T00:00:12.373Z,100013.92
2023-06-22T00:01:14.773Z,100012.25
2023-06-22T00:02:17.476Z,100006.95
2023-06-22T00:03:21.199Z,100003.63
2023-06-22T00:04:23.654Z,100013.64
2023-06-22T00:05:25.820Z,100016.67
2023-06-22T00:06:28.216Z,100014.99
2023-06-22T00:07:30.764Z,100017.89
2023-06-22T00:08:32.924Z,100010.81
2023-06-22T00:09:35.119Z,100009.84
2023-06-22T00:10:37.450Z,100013.31
2023-06-22T00:11:40.332Z,100014.85
2023-06-22T00:12:42.648Z,100021.69
2023-06-22T00:13:45.659Z,100012.78
2023-06-22T00:14:48.085Z,100023.11
2023-06-22T00:15:51.336Z,100015.86
2023-06-22T00:16:58.376Z,100013.10
2023-06-22T00:18:01.305Z,100015.61
2023-06-22T00:19:04.108Z,100010.06
2023-06-22T00:20:10.478Z,100015.07
2023-06-22T00:21:13.107Z,100014.81
2023-06-22T00:22:17.144Z,100014.93
2023-06-22T00:23:24.324Z,100020.11
2023-06-22T00:24:26.616Z,100015.39
2023-06-22T00:25:29.764Z,100012.45
2023-06-22T00:26:32.426Z,100015.81
2023-06-22T00:27:36.702Z,100017.38
2023-06-22T00:28:38.780Z,100020.75
2023-06-22T00:29:41.658Z,100016.27
2023-06-22T00:30:43.999Z,100025.19
2023-06-22T00:31:46.967Z,100021.00
2023-06-22T00:32:50.991Z,100026.30
2023-06-22T00:33:53.227Z,100019.31
2023-06-22T00:34:55.814Z,100019.58
2023-06-22T00:35:59.176Z,100023.05
2023-06-22T00:37:02.036Z,100019.00
2023-06-22T00:38:05.642Z,100026.80
2023-06-22T00:39:08.599Z,100022.47
2023-06-22T00:40:12.517Z,100023.44
2023-06-22T00:41:15.014Z,100025.12
2023-06-22T00:42:18.194Z,100023.58
2023-06-22T00:43:21.036Z,100020.36
2023-06-22T00:44:23.193Z,100019.54
2023-06-22T00:45:27.808Z,100019.79
2023-06-22T00:46:30.761Z,100019.22
2023-06-22T00:47:35.076Z,100024.52
2023-06-22T00:48:37.494Z,100022.40
2023-06-22T00:49:40.034Z,100024.22
2023-06-22T00:50:43.067Z,100026.58
2023-06-22T00:51:47.473Z,100025.48
2023-06-22T00:52:53.420Z,100016.72
2023-06-22T00:53:56.084Z,100024.80
2023-06-22T00:55:01.307Z,100022.01
2023-06-22T00:56:06.277Z,100027.30
2023-06-22T00:57:11.504Z,100021.15
2023-06-22T00:58:14.256Z,100025.05
2023-06-22T00:59:18.317Z,100033.70
2023-06-22T01:00:24.480Z,100033.13
2023-06-22T01:01:27.044Z,100034.19
2023-06-22T01:02:32.051Z,100031.92
2023-06-22T01:03:34.581Z,100026.64
2023-06-22T01:04:40.511Z,100029.00
2023-06-22T01:05:45.127Z,100028.56
2023-06-22T01:06:54.858Z,100029.34
2023-06-22T01:08:11.503Z,100029.34
2023-06-22T01:09:30.749Z,100021.81
2023-06-22T01:10:40.469Z,100031.54
2023-06-22T01:11:56.479Z,100031.54
2023-06-22T01:13:09.612Z,100033.80
2023-06-22T01:14:15.503Z,100031.88
2023-06-22T01:15:32.903Z,100029.23
2023-06-22T01:16:37.750Z,100037.55
2023-06-22T01:17:43.672Z,100030.37
2023-06-22T01:18:49.983Z,100035.95
2023-06-22T01:19:57.733Z,100038.70
2023-06-22T01:21:02.956Z,100035.61
2023-06-22T01:22:09.220Z,100035.61
2023-06-22T01:23:38.277Z,100037.66
2023-06-22T01:24:44.236Z,100029.73
2023-06-22T01:26:20.880Z,100033.83
2023-06-22T01:27:29.971Z,100037.44
2023-06-22T01:28:47.961Z,100030.87
2023-06-22T01:29:53.205Z,100036.02
2023-06-22T01:30:58.416Z,100038.22
2023-06-22T01:32:04.331Z,100037.12
2023-06-22T01:33:11.090Z,100033.52
2023-06-22T01:34:15.116Z,100034.61
2023-06-22T01:35:19.018Z,100034.85
2023-06-22T01:36:23.966Z,100034.61
2023-06-22T01:37:27.892Z,100036.02
2023-06-22T01:38:31.664Z,100035.64
2023-06-22T01:39:35.308Z,100034.69
2023-06-22T01:40:39.099Z,100032.14
2023-06-22T01:41:43.894Z,100037.94
2023-06-22T01:42:47.389Z,100045.13
2023-06-22T01:43:50.267Z,100041.31
2023-06-22T01:44:54.364Z,100043.23
2023-06-22T01:45:58.799Z,100042.41
2023-06-22T01:47:02.292Z,100050.47
2023-06-22T01:48:05.529Z,100046.89
2023-06-22T01:49:09.383Z,100046.89
2023-06-22T01:50:13.746Z,100049.81
2023-06-22T01:51:16.567Z,100042.70
2023-06-22T01:52:21.528Z,100041.48
2023-06-22T01:53:25.668Z,100043.74
2023-06-22T01:54:28.239Z,100043.23
2023-06-22T01:55:30.619Z,100043.81
2023-06-22T01:56:33.416Z,100040.80
2023-06-22T01:57:36.294Z,100034.06
2023-06-22T01:58:42.275Z,100034.06
2023-06-22T01:59:57.300Z,100040.31
2023-06-22T02:01:04.291Z,100043.67
2023-06-22T02:02:12.375Z,100043.40
2023-06-22T02:03:18.565Z,100036.05
2023-06-22T02:04:24.711Z,100041.34
2023-06-22T02:05:30.611Z,100041.17
2023-06-22T02:06:37.991Z,100038.62
2023-06-22T02:07:43.904Z,100033.59
2023-06-22T02:08:49.863Z,100034.41
2023-06-22T02:09:55.666Z,100035.30
2023-06-22T02:11:00.669Z,100041.41
2023-06-22T02:12:05.738Z,100041.75
2023-06-22T02:13:10.411Z,100034.50
2023-06-22T02:14:14.038Z,100034.98
2023-06-22T02:15:17.734Z,100031.42
2023-06-22T02:16:22.747Z,100028.19
2023-06-22T02:17:27.296Z,100034.34
2023-06-22T02:18:30.113Z,100033.09
2023-06-22T02:19:34.872Z,100037.63
2023-06-22T02:20:38.350Z,100039.27
2023-06-22T02:21:41.396Z,100036.83
2023-06-22T02:22:43.852Z,100043.55
2023-06-22T02:23:47.661Z,100034.19
2023-06-22T02:24:50.002Z,100039.47
2023-06-22T02:25:52.273Z,100042.91
2023-06-22T02:26:54.742Z,100034.20
2023-06-22T02:27:56.940Z,100035.88
2023-06-22T02:28:59.516Z,100038.65
2023-06-22T02:30:02.515Z,100036.11
2023-06-22T02:31:04.927Z,100039.26
2023-06-22T02:32:08.078Z,100036.30
2023-06-22T02:33:10.730Z,100043.41
2023-06-22T02:34:15.586Z,100044.59
2023-06-22T02:35:17.953Z,100040.13
2023-06-22T02:36:23.526Z,100042.19
2023-06-22T02:37:28.505Z,100043.28
2023-06-22T02:38:36.832Z,100044.13
2023-06-22T02:39:39.150Z,100044.00
2023-06-22T02:40:43.583Z,100039.31
2023-06-22T02:41:45.966Z,100033.76
2023-06-22T02:42:48.731Z,100035.92
2023-06-22T02:43:51.826Z,100040.22
2023-06-22T02:44:56.877Z,100036.46
2023-06-22T02:45:59.327Z,100040.94
2023-06-22T02:47:02.236Z,100047.64
2023-06-22T02:48:05.470Z,100036.75
2023-06-22T02:49:07.870Z,100041.95
2023-06-22T02:50:10.920Z,100042.19
2023-06-22T02:51:13.420Z,100035.27
2023-06-22T02:52:15.808Z,100041.86
2023-06-22T02:53:18.003Z,100040.99
2023-06-22T02:54:21.843Z,100038.80
2023-06-22T02:55:27.236Z,100037.80
2023-06-22T02:56:31.616Z,100045.13
2023-06-22T02:57:36.126Z,100037.07
2023-06-22T02:58:38.944Z,100036.16
2023-06-22T02:59:43.399Z,100039.90
2023-06-22T03:00:46.792Z,100040.70
2023-06-22T03:01:49.459Z,100042.25
2023-06-22T03:02:53.726Z,100040.89
2023-06-22T03:03:56.611Z,100034.03
2023-06-22T03:05:01.888Z,100034.03
2023-06-22T03:06:05.448Z,100042.41
2023-06-22T03:07:08.913Z,100036.74
2023-06-22T03:08:11.847Z,100035.44
2023-06-22T03:09:14.284Z,100038.32
2023-06-22T03:10:16.806Z,100045.05
2023-06-22T03:11:19.404Z,100046.14
2023-06-22T03:12:21.787Z,100038.80
2023-06-22T03:13:28.853Z,100042.13
2023-06-22T03:14:31.338Z,100052.47
2023-06-22T03:15:33.596Z,100046.59
2023-06-22T03:16:37.351Z,100048.28
2023-06-22T03:17:40.824Z,100048.00
2023-06-22T03:18:44.156Z,100049.95
2023-06-22T03:19:48.208Z,100051.30
2023-06-22T03:20:51.849Z,100055.25
2023-06-22T03:21:54.098Z,100052.84
2023-06-22T03:22:56.385Z,100051.02
2023-06-22T03:23:59.044Z,100050.95
2023-06-22T03:25:01.868Z,100052.50
2023-06-22T03:26:05.179Z,100052.64
2023-06-22T03:27:07.515Z,100044.32
2023-06-22T03:28:10.252Z,100048.95
2023-06-22T03:29:12.892Z,100048.32
2023-06-22T03:30:15.703Z,100054.77
2023-06-22T03:31:19.971Z,100046.74
2023-06-22T03:32:23.161Z,100050.97
2023-06-22T03:33:25.918Z,100051.55
2023-06-22T03:34:28.246Z,100050.48
2023-06-22T03:35:30.943Z,100041.92
2023-06-22T03:36:33.717Z,100053.66
2023-06-22T03:37:37.839Z,100053.66
2023-06-22T03:38:42.976Z,100051.08
2023-06-22T03:39:45.618Z,100049.90
2023-06-22T03:40:51.466Z,100051.69
2023-06-22T03:41:54.140Z,100040.02
2023-06-22T03:42:58.657Z,100053.14
2023-06-22T03:44:01.262Z,100050.49
2023-06-22T03:45:04.909Z,100051.48
2023-06-22T03:46:08.912Z,100051.91
2023-06-22T03:47:11.280Z,100049.26
2023-06-22T03:48:14.024Z,100048.45
2023-06-22T03:49:16.770Z,100043.42
2023-06-22T03:50:20.822Z,100048.70
2023-06-22T03:51:24.140Z,100043.98
2023-06-22T03:52:26.383Z,100050.41
2023-06-22T03:53:29.677Z,100046.23
2023-06-22T03:54:32.383Z,100046.23
2023-06-22T03:55:35.764Z,100054.22
2023-06-22T03:56:39.041Z,100051.05
2023-06-22T03:57:42.264Z,100044.63
2023-06-22T03:58:45.889Z,100044.63
2023-06-22T03:59:48.445Z,100048.24
2023-06-22T04:00:52.036Z,100051.05
2023-06-22T04:01:56.072Z,100043.20
2023-06-22T04:02:59.495Z,100051.30
2023-06-22T04:04:02.449Z,100054.10
2023-06-22T04:05:06.567Z,100052.42
2023-06-22T04:06:10.132Z,100052.42
2023-06-22T04:07:12.462Z,100053.66
2023-06-22T04:08:16.018Z,100052.95
2023-06-22T04:09:18.461Z,100055.72
2023-06-22T04:10:27.984Z,100054.89
2023-06-22T04:11:30.475Z,100061.16
2023-06-22T04:12:33.863Z,100055.19
2023-06-22T04:13:36.251Z,100062.43
2023-06-22T04:14:38.604Z,100067.73
2023-06-22T04:15:41.401Z,100066.47
2023-06-22T04:16:43.923Z,100066.47
2023-06-22T04:17:46.367Z,100068.86
2023-06-22T04:18:49.178Z,100074.75
2023-06-22T04:19:52.387Z,100074.34
2023-06-22T04:20:54.984Z,100073.90
2023-06-22T04:21:57.343Z,100072.52
2023-06-22T04:22:59.868Z,100071.95
2023-06-22T04:24:03.099Z,100081.17
2023-06-22T04:25:08.093Z,100070.83
2023-06-22T04:26:10.772Z,100077.66
2023-06-22T04:27:13.124Z,100074.59
2023-06-22T04:28:15.813Z,100077.54
2023-06-22T04:29:18.554Z,100077.68
2023-06-22T04:30:21.129Z,100077.78
2023-06-22T04:31:25.212Z,100082.52
2023-06-22T04:32:27.639Z,100078.62
2023-06-22T04:33:30.086Z,100080.30
2023-06-22T04:34:32.887Z,100086.42
2023-06-22T04:35:35.708Z,100090.91
2023-06-22T04:36:41.951Z,100081.98
2023-06-22T04:37:44.136Z,100083.63
2023-06-22T04:38:46.357Z,100088.93
2023-06-22T04:39:48.654Z,100083.92
2023-06-22T04:40:51.815Z,100088.26
2023-06-22T04:41:55.453Z,100089.23
2023-06-22T04:42:57.938Z,100085.61
2023-06-22T04:44:01.456Z,100089.23
2023-06-22T04:45:05.161Z,100086.73
2023-06-22T04:46:08.027Z,100093.69
2023-06-22T04:47:10.397Z,100091.18
2023-06-22T04:48:14.866Z,100096.48
2023-06-22T04:49:17.525Z,100098.44
2023-06-22T04:50:21.696Z,100098.44
2023-06-22T04:51:25.682Z,100094.81
2023-06-22T04:52:28.527Z,100088.37
2023-06-22T04:53:32.402Z,100100.09
2023-06-22T04:54:36.778Z,100099.83
2023-06-22T04:55:42.085Z,100098.46
2023-06-22T04:56:46.900Z,100097.89
2023-06-22T04:57:49.755Z,100097.31
2023-06-22T04:58:52.643Z,100093.09
2023-06-22T04:59:54.855Z,100096.15
2023-06-22T05:00:57.614Z,100104.23
2023-06-22T05:02:01.584Z,100102.24
2023-06-22T05:03:18.519Z,100107.98
2023-06-22T05:04:09.454Z,100102.08
2023-06-22T05:06:25.260Z,100103.23
2023-06-22T05:07:28.494Z,100103.41
2023-06-22T05:08:30.728Z,100110.70
2023-06-22T05:09:34.312Z,100111.81
2023-06-22T05:10:38.620Z,100111.53
2023-06-22T05:11:41.730Z,100106.61
2023-06-22T05:12:44.044Z,100098.73
2023-06-22T05:13:47.391Z,100103.80
2023-06-22T05:14:49.656Z,100107.98
2023-06-22T05:15:51.637Z,100113.52
2023-06-22T05:16:54.909Z,100109.61
2023-06-22T05:17:58.992Z,100108.02
2023-06-22T05:19:03.610Z,100105.05
2023-06-22T05:20:09.363Z,100108.09
2023-06-22T05:21:11.622Z,100104.98
2023-06-22T05:22:15.045Z,100108.34
2023-06-22T05:23:18.601Z,100103.84
2023-06-22T05:24:20.807Z,100104.83
2023-06-22T05:25:23.175Z,100102.17
2023-06-22T05:26:25.460Z,100103.62
2023-06-22T05:27:27.413Z,100108.09
2023-06-22T05:28:29.499Z,100103.09
2023-06-22T05:29:32.439Z,100107.02
2023-06-22T05:30:34.702Z,100104.52
2023-06-22T05:31:37.157Z,100109.00
2023-06-22T05:32:39.627Z,100100.34
2023-06-22T05:33:44.244Z,100096.44
2023-06-22T05:34:46.729Z,100102.08
2023-06-22T05:35:50.112Z,100100.39
2023-06-22T05:36:52.519Z,100102.36
2023-06-22T05:37:55.809Z,100100.83
2023-06-22T05:38:59.051Z,100101.15
2023-06-22T05:40:01.419Z,100095.39
2023-06-22T05:41:06.308Z,100105.19
2023-06-22T05:42:10.887Z,100104.05
2023-06-22T05:43:13.821Z,100109.65
2023-06-22T05:44:16.094Z,100114.68
2023-06-22T05:45:18.612Z,100102.67
2023-06-22T05:46:21.838Z,100106.71
2023-06-22T05:47:24.356Z,100106.17
2023-06-22T05:48:26.579Z,100100.14
2023-06-22T05:49:30.644Z,100097.58
2023-06-22T05:50:33.616Z,100100.49
2023-06-22T05:51:36.552Z,100107.02
2023-06-22T05:52:38.833Z,100111.06
2023-06-22T05:53:41.003Z,100098.47
2023-06-22T05:54:44.641Z,100099.83
2023-06-22T05:55:47.617Z,100101.34
2023-06-22T05:56:50.093Z,100107.20
2023-06-22T05:57:52.095Z,100105.84
2023-06-22T05:58:55.507Z,100096.85
2023-06-22T05:59:57.989Z,100098.24
2023-06-22T06:01:02.187Z,100098.24
2023-06-22T06:02:05.433Z,100096.28
2023-06-22T06:03:09.089Z,100102.26
2023-06-22T06:04:11.369Z,100102.58
2023-06-22T06:05:18.041Z,100096.28
2023-06-22T06:06:25.402Z,100097.09
2023-06-22T06:07:27.883Z,100095.27
2023-06-22T06:08:29.936Z,100093.75
2023-06-22T06:09:32.246Z,100091.78
2023-06-22T06:10:35.849Z,100095.95
2023-06-22T06:11:39.426Z,100096.28
2023-06-22T06:12:41.844Z,100095.42
2023-06-22T06:13:44.733Z,100090.96
2023-06-22T06:14:47.840Z,100090.96
2023-06-22T06:15:51.950Z,100097.92
2023-06-22T06:16:54.774Z,100092.61
2023-06-22T06:17:57.132Z,100092.48
2023-06-22T06:18:59.791Z,100095.67
2023-06-22T06:20:03.932Z,100088.84
2023-06-22T06:21:06.313Z,100090.42
2023-06-22T06:22:08.535Z,100092.92
2023-06-22T06:23:10.812Z,100093.45
2023-06-22T06:24:13.898Z,100093.67
2023-06-22T06:25:17.250Z,100090.89
2023-06-22T06:26:21.844Z,100089.42
2023-06-22T06:27:26.045Z,100088.28
2023-06-22T06:28:28.473Z,100086.63
2023-06-22T06:29:31.083Z,100086.31
2023-06-22T06:30:34.244Z,100086.15
2023-06-22T06:31:37.120Z,100089.88
2023-06-22T06:32:40.088Z,100084.29
2023-06-22T06:33:42.556Z,100085.11
2023-06-22T06:34:44.986Z,100080.94
2023-06-22T06:35:47.361Z,100082.33
2023-06-22T06:36:49.685Z,100088.47
2023-06-22T06:37:51.966Z,100076.68
2023-06-22T06:38:55.155Z,100088.37
2023-06-22T06:39:57.388Z,100085.42
2023-06-22T06:40:59.956Z,100082.14
2023-06-22T06:42:02.647Z,100085.16
2023-06-22T06:43:05.702Z,100084.87
2023-06-22T06:44:07.865Z,100087.89
2023-06-22T06:45:12.343Z,100082.23
2023-06-22T06:46:15.173Z,100079.28
2023-06-22T06:47:18.136Z,100079.97
2023-06-22T06:48:21.592Z,100081.94
2023-06-22T06:49:25.132Z,100077.97
2023-06-22T06:50:28.553Z,100079.34
2023-06-22T06:51:31.322Z,100080.69
2023-06-22T06:52:36.021Z,100075.53
2023-06-22T06:53:38.980Z,100073.39
2023-06-22T06:54:43.492Z,100070.55
2023-06-22T06:55:47.122Z,100076.70
2023-06-22T06:56:49.931Z,100080.58
2023-06-22T06:57:53.174Z,100079.42
2023-06-22T06:58:56.081Z,100071.30
2023-06-22T06:59:58.504Z,100074.78
2023-06-22T07:01:01.083Z,100072.12
2023-06-22T07:02:03.673Z,100073.49
2023-06-22T07:03:07.534Z,100075.84
2023-06-22T07:04:10.055Z,100078.52
2023-06-22T07:05:13.784Z,100075.50
2023-06-22T07:06:17.939Z,100075.16
2023-06-22T07:07:20.206Z,100081.53
2023-06-22T07:08:23.169Z,100076.41
2023-06-22T07:09:25.345Z,100075.26
2023-06-22T07:10:29.122Z,100077.23
2023-06-22T07:11:32.780Z,100077.57
2023-06-22T07:12:35.335Z,100074.92
2023-06-22T07:13:38.735Z,100078.78
2023-06-22T07:14:41.801Z,100081.97
2023-06-22T07:15:44.142Z,100077.97
2023-06-22T07:16:46.311Z,100082.52
2023-06-22T07:17:48.644Z,100079.38
2023-06-22T07:18:50.840Z,100070.87
2023-06-22T07:19:54.114Z,100074.73
2023-06-22T07:20:56.650Z,100072.75
2023-06-22T07:21:59.148Z,100077.73
2023-06-22T07:23:02.335Z,100076.74
2023-06-22T07:24:06.436Z,100077.11
2023-06-22T07:25:14.772Z,100077.63
2023-06-22T07:26:17.409Z,100075.13
2023-06-22T07:27:20.496Z,100073.82
2023-06-22T07:28:22.722Z,100079.49
2023-06-22T07:29:24.930Z,100078.16
2023-06-22T07:30:27.844Z,100082.18
2023-06-22T07:31:31.321Z,100079.34
2023-06-22T07:32:33.618Z,100077.49
2023-06-22T07:33:36.052Z,100072.84
2023-06-22T07:34:39.228Z,100072.86
2023-06-22T07:35:41.724Z,100072.86
2023-06-22T07:36:45.324Z,100081.54
2023-06-22T07:37:47.889Z,100082.38
2023-06-22T07:38:49.995Z,100082.38
2023-06-22T07:39:54.041Z,100081.52
2023-06-22T07:40:56.460Z,100072.88
2023-06-22T07:41:58.614Z,100083.88
2023-06-22T07:43:00.823Z,100078.86
2023-06-22T07:44:05.330Z,100080.53
2023-06-22T07:45:08.792Z,100081.36
2023-06-22T07:46:12.523Z,100083.70
2023-06-22T07:47:15.254Z,100076.53
2023-06-22T07:48:18.832Z,100086.89
2023-06-22T07:49:21.407Z,100082.72
2023-06-22T07:50:23.929Z,100085.22
2023-06-22T07:51:27.162Z,100080.87
2023-06-22T07:52:30.481Z,100077.52
2023-06-22T07:53:32.897Z,100075.19
2023-06-22T07:54:35.685Z,100075.15
2023-06-22T07:55:38.154Z,100075.64
2023-06-22T07:56:40.480Z,100081.14
2023-06-22T07:57:42.795Z,100090.48
2023-06-22T07:58:47.070Z,100082.14
2023-06-22T07:59:50.110Z,100086.66
2023-06-22T08:00:52.751Z,100084.16
2023-06-22T08:01:56.160Z,100089.17
2023-06-22T08:02:59.244Z,100080.84
2023-06-22T08:04:02.024Z,100091.16
2023-06-22T08:05:19.155Z,100085.47
2023-06-22T08:06:10.786Z,100082.45
2023-06-22T08:07:13.599Z,100078.91
2023-06-22T08:08:16.565Z,100080.72
2023-06-22T08:09:19.968Z,100089.53
2023-06-22T08:10:24.723Z,100084.16
2023-06-22T08:11:27.143Z,100090.92
2023-06-22T08:12:29.314Z,100083.22
2023-06-22T08:13:31.628Z,100091.83
2023-06-22T08:14:35.640Z,100094.41
2023-06-22T08:15:37.823Z,100089.64
2023-06-22T08:16:41.604Z,100085.71
2023-06-22T08:17:45.779Z,100092.13
2023-06-22T08:18:47.977Z,100086.01
2023-06-22T08:19:50.394Z,100092.98
2023-06-22T08:20:53.073Z,100097.85
2023-06-22T08:21:55.461Z,100096.77
2023-06-22T08:22:59.816Z,100092.73
2023-06-22T08:24:02.891Z,100102.58
2023-06-22T08:25:06.631Z,100098.56
2023-06-22T08:26:09.888Z,100101.61
2023-06-22T08:27:17.417Z,100107.28
2023-06-22T08:28:19.867Z,100101.34
2023-06-22T08:29:22.118Z,100104.02
2023-06-22T08:30:24.558Z,100104.02
2023-06-22T08:31:27.902Z,100100.52
2023-06-22T08:32:30.757Z,100083.76
2023-06-22T08:33:33.249Z,100083.76
2023-06-22T08:34:36.167Z,100082.99
2023-06-22T08:35:38.925Z,100097.14
2023-06-22T08:36:43.131Z,100099.75
2023-06-22T08:37:47.629Z,100096.58
2023-06-22T08:38:51.828Z,100095.88
2023-06-22T08:39:56.246Z,100099.54
2023-06-22T08:40:58.716Z,100094.13
2023-06-22T08:42:01.149Z,100098.09
2023-06-22T08:43:03.445Z,100092.17
2023-06-22T08:44:06.883Z,100102.88
2023-06-22T08:45:10.592Z,100090.50
2023-06-22T08:46:13.101Z,100101.20
2023-06-22T08:47:15.247Z,100099.00
2023-06-22T08:48:17.302Z,100095.76
2023-06-22T08:49:19.483Z,100095.59
2023-06-22T08:50:22.551Z,100097.73
2023-06-22T08:51:25.717Z,100093.67
2023-06-22T08:52:28.114Z,100096.63
2023-06-22T08:53:31.312Z,100089.26
2023-06-22T08:54:36.017Z,100088.05
2023-06-22T08:55:38.489Z,100082.34
2023-06-22T08:56:41.093Z,100083.90
2023-06-22T08:57:44.839Z,100084.45
2023-06-22T08:58:47.386Z,100084.45
2023-06-22T08:59:50.189Z,100083.72
2023-06-22T09:00:53.349Z,100084.10
2023-06-22T09:01:58.607Z,100084.56
2023-06-22T09:03:02.038Z,100085.57
2023-06-22T09:04:08.256Z,100086.20
2023-06-22T09:05:11.185Z,100085.66
2023-06-22T09:06:15.279Z,100085.49
2023-06-22T09:07:19.930Z,100079.01
2023-06-22T09:08:22.308Z,100077.25
2023-06-22T09:09:24.734Z,100079.28
2023-06-22T09:10:27.627Z,100082.09
2023-06-22T09:11:30.175Z,100077.59
2023-06-22T09:12:33.381Z,100078.69
2023-06-22T09:13:36.320Z,100071.44
2023-06-22T09:14:38.727Z,100074.39
2023-06-22T09:15:40.985Z,100073.92
2023-06-22T09:16:43.505Z,100071.91
2023-06-22T09:17:48.350Z,100070.70
2023-06-22T09:18:50.934Z,100074.86
2023-06-22T09:19:53.378Z,100072.45
2023-06-22T09:20:56.040Z,100070.78
2023-06-22T09:21:58.562Z,100073.73
2023-06-22T09:23:01.526Z,100073.39
2023-06-22T09:24:04.305Z,100065.54
2023-06-22T09:25:08.123Z,100073.39
2023-06-22T09:26:11.577Z,100063.41
2023-06-22T09:27:13.908Z,100065.23
2023-06-22T09:28:16.307Z,100073.27
2023-06-22T09:29:19.707Z,100065.23
2023-06-22T09:30:22.812Z,100065.69
2023-06-22T09:31:27.754Z,100062.01
2023-06-22T09:32:30.306Z,100063.67
2023-06-22T09:33:32.530Z,100069.85
2023-06-22T09:34:35.280Z,100070.23
2023-06-22T09:35:38.216Z,100068.56
2023-06-22T09:36:42.750Z,100061.89
2023-06-22T09:37:46.215Z,100074.27
2023-06-22T09:38:49.805Z,100069.77
2023-06-22T09:39:52.343Z,100065.61
2023-06-22T09:40:55.723Z,100060.33
2023-06-22T09:42:00.638Z,100067.03
2023-06-22T09:43:02.952Z,100067.03
2023-06-22T09:44:05.393Z,100068.98
2023-06-22T09:45:08.534Z,100068.91
2023-06-22T09:46:12.371Z,100070.39
2023-06-22T09:47:15.481Z,100071.91
2023-06-22T09:48:19.121Z,100069.58
2023-06-22T09:49:30.922Z,100073.00
2023-06-22T09:50:26.185Z,100066.47
2023-06-22T09:51:28.645Z,100067.21
2023-06-22T09:52:43.596Z,100064.34
2023-06-22T09:53:35.947Z,100060.34
2023-06-22T09:54:39.213Z,100061.58
2023-06-22T09:55:41.827Z,100063.02
2023-06-22T09:56:44.553Z,100054.44
2023-06-22T09:57:46.850Z,100060.27
2023-06-22T09:58:53.024Z,100060.27
2023-06-22T09:59:56.489Z,100065.69
2023-06-22T10:00:59.408Z,100065.89
2023-06-22T10:02:01.929Z,100061.39
2023-06-22T10:03:05.419Z,100060.53
2023-06-22T10:04:08.277Z,100058.07
2023-06-22T10:05:11.062Z,100056.97
2023-06-22T10:06:13.835Z,100050.02
2023-06-22T10:07:17.158Z,100052.89
2023-06-22T10:08:20.438Z,100043.45
2023-06-22T10:09:22.974Z,100049.41
2023-06-22T10:10:26.059Z,100038.47
2023-06-22T10:11:30.375Z,100038.47
2023-06-22T10:12:32.791Z,100050.20
2023-06-22T10:13:35.541Z,100042.91
2023-06-22T10:14:38.453Z,100042.27
2023-06-22T10:15:41.790Z,100047.72
2023-06-22T10:16:44.295Z,100049.06
2023-06-22T10:17:46.472Z,100043.27
2023-06-22T10:18:49.257Z,100047.26
2023-06-22T10:19:51.435Z,100040.53
2023-06-22T10:20:53.780Z,100045.89
2023-06-22T10:21:56.487Z,100038.57
2023-06-22T10:23:00.091Z,100037.36
2023-06-22T10:24:05.361Z,100040.13
2023-06-22T10:25:08.744Z,100030.69
2023-06-22T10:26:11.360Z,100028.97
2023-06-22T10:27:14.804Z,100030.95
2023-06-22T10:28:17.531Z,100027.70
2023-06-22T10:29:21.538Z,100029.91
2023-06-22T10:30:24.353Z,100031.77
2023-06-22T10:31:28.254Z,100031.09
2023-06-22T10:32:30.699Z,100032.56
2023-06-22T10:33:33.005Z,100037.08
2023-06-22T10:34:35.982Z,100033.00
2023-06-22T10:35:38.821Z,100031.34
2023-06-22T10:36:42.457Z,100025.97
2023-06-22T10:37:46.394Z,100016.95
2023-06-22T10:38:49.154Z,100021.88
2023-06-22T10:39:51.437Z,100021.38
2023-06-22T10:40:54.280Z,100018.41
2023-06-22T10:41:56.681Z,100018.81
2023-06-22T10:42:59.049Z,100012.03
2023-06-22T10:44:02.261Z,100014.47
2023-06-22T10:45:05.259Z,100018.95
2023-06-22T10:46:08.321Z,100014.59
2023-06-22T10:47:11.842Z,100004.77
2023-06-22T10:48:14.236Z,100004.23
2023-06-22T10:49:16.387Z,99998.94
2023-06-22T10:50:18.874Z,100013.25
2023-06-22T10:51:21.371Z,100007.78
2023-06-22T10:52:23.629Z,100006.55
2023-06-22T10:53:26.272Z,100006.28
2023-06-22T10:54:29.580Z,100000.03
2023-06-22T10:55:47.122Z,100000.03
2023-06-22T10:56:36.244Z,100002.31
2023-06-22T10:57:41.816Z,99994.59
2023-06-22T10:58:45.236Z,100003.33
2023-06-22T10:59:47.440Z,99995.77
2023-06-22T11:00:49.794Z,99996.23
2023-06-22T11:01:52.109Z,99999.77
2023-06-22T11:02:54.902Z,99992.21
2023-06-22T11:03:57.702Z,99993.37
2023-06-22T11:05:03.956Z,100002.16
2023-06-22T11:06:06.512Z,99989.76
2023-06-22T11:07:10.338Z,99994.63
2023-06-22T11:08:12.674Z,99995.13
2023-06-22T11:09:25.391Z,99996.91
2023-06-22T11:10:21.083Z,100002.81
2023-06-22T11:11:23.594Z,100002.06
2023-06-22T11:12:26.188Z,100004.80
2023-06-22T11:13:28.510Z,99998.80
2023-06-22T11:14:30.721Z,99998.47
2023-06-22T11:15:35.128Z,99995.39
2023-06-22T11:16:37.625Z,100000.63
2023-06-22T11:17:41.197Z,99993.62
2023-06-22T11:18:43.965Z,99987.45
2023-06-22T11:19:46.712Z,99993.66
2023-06-22T11:20:51.514Z,99994.28
2023-06-22T11:21:54.831Z,99992.84
2023-06-22T11:22:57.185Z,100001.76
2023-06-22T11:24:02.642Z,99994.89
2023-06-22T11:25:06.611Z,100001.55
2023-06-22T11:26:10.112Z,99988.28
2023-06-22T11:27:13.340Z,99990.75
2023-06-22T11:28:16.274Z,99994.10
2023-06-22T11:29:31.918Z,99986.63
2023-06-22T11:30:23.625Z,99988.28
2023-06-22T11:31:27.337Z,99991.43
2023-06-22T11:32:30.822Z,99983.14
2023-06-22T11:33:33.674Z,99988.95
2023-06-22T11:34:36.001Z,99994.13
2023-06-22T11:35:39.262Z,99990.17
2023-06-22T11:36:42.652Z,99990.39
2023-06-22T11:37:46.230Z,99994.33
2023-06-22T11:38:48.927Z,100002.80
2023-06-22T11:39:59.617Z,99990.81
2023-06-22T11:40:55.377Z,99991.22
2023-06-22T11:42:00.448Z,99981.23
2023-06-22T11:43:03.751Z,99982.08
2023-06-22T11:44:06.265Z,99982.08
2023-06-22T11:45:09.220Z,99987.03
2023-06-22T11:46:12.067Z,99981.59
2023-06-22T11:47:14.923Z,99984.23
2023-06-22T11:48:17.115Z,99979.69
2023-06-22T11:49:19.506Z,99979.45
2023-06-22T11:50:22.979Z,99986.45
2023-06-22T11:51:26.203Z,99985.16
2023-06-22T11:52:28.547Z,99978.09
2023-06-22T11:53:31.371Z,99971.16
2023-06-22T11:54:34.717Z,99973.27
2023-06-22T11:55:37.887Z,99974.08
2023-06-22T11:56:41.161Z,99979.05
2023-06-22T11:57:56.607Z,99978.99
2023-06-22T11:58:59.951Z,99978.51
2023-06-22T12:00:05.704Z,99979.22
2023-06-22T12:01:09.064Z,99983.16
2023-06-22T12:02:11.292Z,99971.30
2023-06-22T12:03:15.253Z,99975.19
2023-06-22T12:04:17.754Z,99971.54
2023-06-22T12:05:22.624Z,99971.31
2023-06-22T12:06:25.631Z,99974.63
2023-06-22T12:07:28.148Z,99971.22